Time;durP1;ratioP1;P1;durP2;ratioP2;P2;SDS_P1;SDS_P2;PMS_P1;PMS_P2;Temp;Humidity;BMP_temperature;BMP_pressure;BME280_temperature;BME280_humidity;BME280_pressure;Samples;Min_cycle;Max_cycle;Signal;HPM_P1;HPM_P2
2023/08/26 00:02:14;;;;;;;;;;;;;;;;;;6196214;28;19976;-74
2023/08/26 00:05:14;;;;;;;;;;;;;;;;;;6195838;28;19913;-74
2023/08/26 00:08:15;;;;;;;;;;;;;;;;;;6182552;28;19924;-79
2023/08/26 00:11:15;;;;;;;;;;;;;;;;;;6202103;28;19910;-75
2023/08/26 00:14:15;;;;;;;;;;;;;;;;;;6196967;28;19910;-72
2023/08/26 00:17:15;;;;;;;;;;;;;;;;;;6195133;28;20369;-74
2023/08/26 00:20:15;;;;;;;;;;;;;;;;;;6197439;28;19906;-74
2023/08/26 00:23:15;;;;;;;;;;;;;;;;;;6197570;28;19920;-74
2023/08/26 00:26:19;;;;;;;;;;;;;;;;;;6183030;28;19936;-74
2023/08/26 00:29:19;;;;;;;;;;;;;;;;;;6196608;28;20096;-73
2023/08/26 00:32:19;;;;;;;;;;;;;;;;;;6195600;28;20331;-73
2023/08/26 00:35:19;;;;;;;;;;;;;;;;;;6214054;28;19917;-74
2023/08/26 00:38:19;;;;;;;;;;;;;;;;;;6203886;28;19909;-74
2023/08/26 00:41:19;;;;;;;;;;;;;;;;;;6179295;28;19968;-74
2023/08/26 00:44:19;;;;;;;;;;;;;;;;;;6201535;28;19941;-74
2023/08/26 00:47:19;;;;;;;;;;;;;;;;;;6173716;28;19940;-74
2023/08/26 00:50:20;;;;;;;;;;;;;;;;;;6199332;28;19936;-79
2023/08/26 00:53:20;;;;;;;;;;;;;;;;;;6203165;28;19909;-74
2023/08/26 00:56:20;;;;;;;;;;;;;;;;;;6196912;28;20364;-74
2023/08/26 00:59:20;;;;;;;;;;;;;;;;;;6196652;28;20372;-73
2023/08/26 01:02:21;;;;;;;;;;;;;;;;;;6212922;28;20033;-73
2023/08/26 01:05:21;;;;;;;;;;;;;;;;;;6195768;28;20057;-74
2023/08/26 01:08:21;;;;;;;;;;;;;;;;;;6217682;28;19929;-73
2023/08/26 01:11:21;;;;;;;;;;;;;;;;;;6218067;28;20047;-73
2023/08/26 01:14:21;;;;;;;;;;;;;;;;;;6195596;28;20344;-73
2023/08/26 01:17:21;;;;;;;;;;;;;;;;;;6185235;28;19963;-74
2023/08/26 01:20:21;;;;;;;;;;;;;;;;;;6197433;28;19937;-73
2023/08/26 01:23:23;;;;;;;;;;;;;;;;;;6195748;28;20346;-73
2023/08/26 01:26:23;;;;;;;;;;;;;;;;;;6196800;28;19916;-74
2023/08/26 01:29:24;;;;;;;;;;;;;;;;;;6196322;28;19906;-74
2023/08/26 01:32:24;;;;;;;;;;;;;;;;;;6193746;28;19921;-74
2023/08/26 01:35:24;;;;;;;;;;;;;;;;;;6196515;28;19913;-74
2023/08/26 01:38:24;;;;;;;;;;;;;;;;;;6196934;28;19909;-74
2023/08/26 01:41:24;;;;;;;;;;;;;;;;;;6212023;28;19910;-72
2023/08/26 01:44:25;;;;;;;;;;;;;;;;;;6210786;28;19918;-73
2023/08/26 01:47:25;;;;;;;;;;;;;;;;;;6195236;28;19933;-73
2023/08/26 01:50:25;;;;;;;;;;;;;;;;;;6195978;28;20361;-72
2023/08/26 01:53:25;;;;;;;;;;;;;;;;;;6198807;28;19910;-72
2023/08/26 01:56:25;;;;;;;;;;;;;;;;;;6197195;28;19909;-72
2023/08/26 01:59:25;;;;;;;;;;;;;;;;;;6221459;28;20008;-72
2023/08/26 02:02:25;;;;;;;;;;;;;;;;;;6223997;28;19976;-74
2023/08/26 02:05:27;;;;;;;;;;;;;;;;;;6209970;28;19955;-74
2023/08/26 02:08:27;;;;;;;;;;;;;;;;;;6209725;28;19910;-73
2023/08/26 02:11:27;;;;;;;;;;;;;;;;;;6224663;28;19940;-74
2023/08/26 02:14:27;;;;;;;;;;;;;;;;;;6206674;28;20399;-74
2023/08/26 02:17:27;;;;;;;;;;;;;;;;;;6207643;28;19920;-74
2023/08/26 02:20:27;;;;;;;;;;;;;;;;;;6210862;28;19910;-74
2023/08/26 02:23:27;;;;;;;;;;;;;;;;;;6183622;28;19910;-74
2023/08/26 02:26:28;;;;;;;;;;;;;;;;;;6217337;28;19932;-74
2023/08/26 02:29:28;;;;;;;;;;;;;;;;;;6224017;28;19918;-74
2023/08/26 02:32:28;;;;;;;;;;;;;;;;;;6219575;28;19979;-74
2023/08/26 02:35:28;;;;;;;;;;;;;;;;;;6188833;28;20319;-74
2023/08/26 02:38:31;;;;;;;;;;;;;;;;;;6200092;28;19906;-74
2023/08/26 02:41:31;;;;;;;;;;;;;;;;;;6200871;28;20325;-74
2023/08/26 02:44:31;;;;;;;;;;;;;;;;;;6198963;28;20345;-74
2023/08/26 02:47:31;;;;;;;;;;;;;;;;;;6198738;28;19905;-77
2023/08/26 02:50:33;;;;;;;;;;;;;;;;;;6190452;28;19968;-73
2023/08/26 02:53:33;;;;;;;;;;;;;;;;;;6199484;28;19972;-73
2023/08/26 02:56:33;;;;;;;;;;;;;;;;;;6199605;28;19945;-73
2023/08/26 02:59:34;;;;;;;;;;;;;;;;;;6190808;28;19913;-72
2023/08/26 03:02:34;;;;;;;;;;;;;;;;;;6212219;28;20008;-73
2023/08/26 03:05:34;;;;;;;;;;;;;;;;;;6200991;28;19975;-74
2023/08/26 03:08:34;;;;;;;;;;;;;;;;;;6194063;28;19916;-73
2023/08/26 03:11:34;;;;;;;;;;;;;;;;;;6198195;28;19927;-74
2023/08/26 03:14:34;;;;;;;;;;;;;;;;;;6201810;28;19931;-75
2023/08/26 03:17:34;;;;;;;;;;;;;;;;;;6202784;28;20309;-74
2023/08/26 03:20:34;;;;;;;;;;;;;;;;;;6174984;28;19921;-73
2023/08/26 03:23:34;;;;;;;;;;;;;;;;;;6207462;28;19913;-75
2023/08/26 03:26:35;;;;;;;;;;;;;;;;;;6223572;28;19905;-74
2023/08/26 03:29:35;;;;;;;;;;;;;;;;;;6213773;28;19941;-79
2023/08/26 03:32:36;;;;;;;;;;;;;;;;;;6188393;28;20336;-74
2023/08/26 03:35:36;;;;;;;;;;;;;;;;;;6223127;28;20307;-73
2023/08/26 03:38:36;;;;;;;;;;;;;;;;;;6198948;28;20371;-73
2023/08/26 03:41:36;;;;;;;;;;;;;;;;;;6200834;28;19920;-73
2023/08/26 03:44:36;;;;;;;;;;;;;;;;;;6196980;28;19964;-73
2023/08/26 03:47:37;;;;;;;;;;;;;;;;;;6197828;28;20323;-73
2023/08/26 03:50:37;;;;;;;;;;;;;;;;;;6207929;28;19952;-73
2023/08/26 03:53:37;;;;;;;;;;;;;;;;;;6204850;28;19945;-73
2023/08/26 03:56:37;;;;;;;;;;;;;;;;;;6208163;28;19992;-73
2023/08/26 03:59:38;;;;;;;;;;;;;;;;;;6179654;28;20431;-74
2023/08/26 04:02:38;;;;;;;;;;;;;;;;;;6196369;28;19973;-73
2023/08/26 04:05:38;;;;;;;;;;;;;;;;;;6197453;28;20012;-73
2023/08/26 04:08:38;;;;;;;;;;;;;;;;;;6216455;28;19909;-73
2023/08/26 04:11:38;;;;;;;;;;;;;;;;;;6217546;28;19931;-79
2023/08/26 04:14:38;;;;;;;;;;;;;;;;;;6167128;28;19910;-73
2023/08/26 04:17:38;;;;;;;;;;;;;;;;;;6190225;28;19905;-73
2023/08/26 04:20:42;;;;;;;;;;;;;;;;;;6197517;28;19922;-74
2023/08/26 04:23:42;;;;;;;;;;;;;;;;;;6199848;28;20364;-74
2023/08/26 04:26:42;;;;;;;;;;;;;;;;;;6202438;28;19941;-74
2023/08/26 04:29:43;;;;;;;;;;;;;;;;;;6220781;28;20039;-75
2023/08/26 04:32:44;;;;;;;;;;;;;;;;;;6190129;28;19916;-74
2023/08/26 04:35:45;;;;;;;;;;;;;;;;;;6197125;28;19928;-74
2023/08/26 04:38:45;;;;;;;;;;;;;;;;;;6196739;28;20301;-74
2023/08/26 04:41:45;;;;;;;;;;;;;;;;;;6204893;28;19921;-74
2023/08/26 04:44:45;;;;;;;;;;;;;;;;;;6195438;28;19940;-74
2023/08/26 04:47:46;;;;;;;;;;;;;;;;;;6197440;28;19972;-73
2023/08/26 04:50:46;;;;;;;;;;;;;;;;;;6196871;28;19906;-73
2023/08/26 04:53:46;;;;;;;;;;;;;;;;;;6196931;28;19909;-73
2023/08/26 04:56:47;;;;;;;;;;;;;;;;;;6195759;28;19931;-74
2023/08/26 04:59:47;;;;;;;;;;;;;;;;;;6217465;28;19920;-73
2023/08/26 05:02:47;;;;;;;;;;;;;;;;;;6196608;28;20046;-74
2023/08/26 05:05:47;;;;;;;;;;;;;;;;;;6179119;28;19913;-75
2023/08/26 05:08:47;;;;;;;;;;;;;;;;;;6218549;28;20004;-75
2023/08/26 05:11:47;;;;;;;;;;;;;;;;;;6201577;28;19909;-73
2023/08/26 05:14:48;;;;;;;;;;;;;;;;;;6173047;28;20227;-74
2023/08/26 05:17:48;;;;;;;;;;;;;;;;;;6211376;28;20253;-74
2023/08/26 05:20:48;;;;;;;;;;;;;;;;;;6187023;28;19918;-74
2023/08/26 05:23:48;;;;;;;;;;;;;;;;;;6205154;28;20007;-75
2023/08/26 05:26:48;;;;;;;;;;;;;;;;;;6199851;28;19916;-77
2023/08/26 05:29:48;;;;;;;;;;;;;;;;;;6220064;28;19920;-73
2023/08/26 05:32:48;;;;;;;;;;;;;;;;;;6208082;28;19906;-73
2023/08/26 05:35:48;;;;;;;;;;;;;;;;;;6187497;28;19972;-74
2023/08/26 05:38:49;;;;;;;;;;;;;;;;;;6205615;28;19945;-74
2023/08/26 05:41:49;;;;;;;;;;;;;;;;;;6207586;28;19992;-74
2023/08/26 05:44:49;;;;;;;;;;;;;;;;;;6199257;28;19952;-74
2023/08/26 05:47:50;;;;;;;;;;;;;;;;;;6201367;28;20004;-74
2023/08/26 05:50:50;;;;;;;;;;;;;;;;;;6221257;28;19949;-73
2023/08/26 05:53:50;;;;;;;;;;;;;;;;;;6209488;28;20441;-74
2023/08/26 05:56:50;;;;;;;;;;;;;;;;;;6207849;28;20359;-74
2023/08/26 05:59:50;;;;;;;;;;;;;;;;;;6199506;28;19909;-74
2023/08/26 06:02:50;;;;;;;;;;;;;;;;;;6203820;28;19921;-74
2023/08/26 06:05:50;;;;;;;;;;;;;;;;;;6205528;28;19913;-75
2023/08/26 06:08:51;;;;;;;;;;;;;;;;;;6202928;28;19972;-78
2023/08/26 06:11:51;;;;;;;;;;;;;;;;;;6200238;28;19959;-74
2023/08/26 06:14:51;;;;;;;;;;;;;;;;;;6196061;28;20132;-74
2023/08/26 06:17:51;;;;;;;;;;;;;;;;;;6192740;28;19910;-73
2023/08/26 06:20:53;;;;;;;;;;;;;;;;;;6200087;28;20337;-73
2023/08/26 06:23:53;;;;;;;;;;;;;;;;;;6211992;28;19921;-74
2023/08/26 06:26:53;;;;;;;;;;;;;;;;;;6224688;28;20313;-73
2023/08/26 06:29:53;;;;;;;;;;;;;;;;;;6217913;28;19917;-73
2023/08/26 06:32:53;;;;;;;;;;;;;;;;;;6202833;28;20392;-73
2023/08/26 06:35:53;;;;;;;;;;;;;;;;;;6182508;28;19929;-73
2023/08/26 06:38:54;;;;;;;;;;;;;;;;;;6200407;28;19925;-73
2023/08/26 06:41:54;;;;;;;;;;;;;;;;;;6220447;28;19957;-72
2023/08/26 06:44:54;;;;;;;;;;;;;;;;;;6198124;28;20002;-74
2023/08/26 06:47:54;;;;;;;;;;;;;;;;;;6207475;28;19914;-74
2023/08/26 06:50:54;;;;;;;;;;;;;;;;;;6208894;28;19916;-78
2023/08/26 06:53:56;;;;;;;;;;;;;;;;;;6199390;28;19913;-75
2023/08/26 06:56:56;;;;;;;;;;;;;;;;;;6204428;28;19909;-74
2023/08/26 06:59:56;;;;;;;;;;;;;;;;;;6222035;28;19920;-75
2023/08/26 07:02:57;;;;;;;;;;;;;;;;;;6214250;28;19922;-74
2023/08/26 07:05:57;;;;;;;;;;;;;;;;;;6205053;28;19909;-73
2023/08/26 07:08:57;;;;;;;;;;;;;;;;;;6220077;28;20003;-73
2023/08/26 07:11:57;;;;;;;;;;;;;;;;;;6198563;28;19964;-73
2023/08/26 07:14:57;;;;;;;;;;;;;;;;;;6190818;28;19936;-73
2023/08/26 07:17:57;;;;;;;;;;;;;;;;;;6199028;28;19906;-74
2023/08/26 07:20:57;;;;;;;;;;;;;;;;;;6181797;28;19929;-75
2023/08/26 07:23:58;;;;;;;;;;;;;;;;;;6197754;28;19921;-74
2023/08/26 07:26:58;;;;;;;;;;;;;;;;;;6198516;28;19921;-74
2023/08/26 07:29:58;;;;;;;;;;;;;;;;;;6196654;28;19906;-74
2023/08/26 07:32:58;;;;;;;;;;;;;;;;;;6202787;28;20349;-74
2023/08/26 07:35:58;;;;;;;;;;;;;;;;;;6198573;28;19913;-74
2023/08/26 07:38:59;;;;;;;;;;;;;;;;;;6198015;28;19910;-73
2023/08/26 07:41:59;;;;;;;;;;;;;;;;;;6218982;28;20288;-74
2023/08/26 07:44:59;;;;;;;;;;;;;;;;;;6196705;28;19960;-75
2023/08/26 07:47:59;;;;;;;;;;;;;;;;;;6203048;28;19964;-73
2023/08/26 07:50:59;;;;;;;;;;;;;;;;;;6220626;28;19959;-75
2023/08/26 07:54:00;;;;;;;;;;;;;;;;;;6198284;28;19914;-75
2023/08/26 07:57:00;;;;;;;;;;;;;;;;;;6211404;28;19910;-76
2023/08/26 08:00:02;;;;;;;;;;;;;;;;;;6186433;28;20280;-75
2023/08/26 08:03:02;;;;;;;;;;;;;;;;;;6177258;28;19924;-74
2023/08/26 08:06:02;;;;;;;;;;;;;;;;;;6191726;28;20012;-74
2023/08/26 08:09:03;;;;;;;;;;;;;;;;;;6198494;28;20348;-75
2023/08/26 08:12:03;;;;;;;;;;;;;;;;;;6197406;28;20009;-75
2023/08/26 08:15:06;;;;;;;;;;;;;;;;;;6181727;28;19921;-75
2023/08/26 08:18:06;;;;;;;;;;;;;;;;;;6194766;28;19909;-75
2023/08/26 08:21:08;;;;;;;;;;;;;;;;;;6184349;28;20372;-75
2023/08/26 08:24:08;;;;;;;;;;;;;;;;;;6215323;28;19918;-75
2023/08/26 08:27:09;;;;;;;;;;;;;;;;;;6197267;28;19906;-75
2023/08/26 08:30:09;;;;;;;;;;;;;;;;;;6191258;28;19976;-75
2023/08/26 08:33:09;;;;;;;;;;;;;;;;;;6179534;28;19918;-74
2023/08/26 08:36:09;;;;;;;;;;;;;;;;;;6197085;28;20037;-74
2023/08/26 08:39:09;;;;;;;;;;;;;;;;;;6179977;28;19910;-76
2023/08/26 08:42:09;;;;;;;;;;;;;;;;;;6180984;28;19917;-75
2023/08/26 08:45:09;;;;;;;;;;;;;;;;;;6193891;28;19905;-75
2023/08/26 08:48:09;;;;;;;;;;;;;;;;;;6196647;28;19910;-78
2023/08/26 08:51:10;;;;;;;;;;;;;;;;;;6196722;28;19921;-74
2023/08/26 08:54:10;;;;;;;;;;;;;;;;;;6196748;28;19951;-75
2023/08/26 08:57:10;;;;;;;;;;;;;;;;;;6196590;28;19914;-74
2023/08/26 09:00:10;;;;;;;;;;;;;;;;;;6193827;28;20143;-74
2023/08/26 09:03:10;;;;;;;;;;;;;;;;;;6177252;28;19921;-75
2023/08/26 09:06:10;;;;;;;;;;;;;;;;;;6172433;28;19909;-75
2023/08/26 09:09:11;;;;;;;;;;;;;;;;;;5835497;28;10000129;-75
2023/08/26 09:12:11;;;;;;;;;;;;;;;;;;6200404;28;19956;-75
2023/08/26 09:15:11;;;;;;;;;;;;;;;;;;6181438;28;19960;-75
2023/08/26 09:18:13;;;;;;;;;;;;;;;;;;6188998;28;20356;-75
2023/08/26 09:21:13;;;;;;;;;;;;;;;;;;6158830;28;20230;-75
2023/08/26 09:24:13;;;;;;;;;;;;;;;;;;6177475;28;19965;-75
2023/08/26 09:27:13;;;;;;;;;;;;;;;;;;6177059;28;19917;-75
2023/08/26 09:30:14;;;;;;;;;;;;;;;;;;6182704;28;19914;-80
2023/08/26 09:33:14;;;;;;;;;;;;;;;;;;6178062;28;19906;-74
2023/08/26 09:36:14;;;;;;;;;;;;;;;;;;6199903;28;19914;-75
2023/08/26 09:39:14;;;;;;;;;;;;;;;;;;6176946;28;19918;-74
2023/08/26 09:42:14;;;;;;;;;;;;;;;;;;6175377;28;19910;-75
2023/08/26 09:45:17;;;;;;;;;;;;;;;;;;6175821;28;19906;-75
2023/08/26 09:48:17;;;;;;;;;;;;;;;;;;6187459;28;19929;-75
2023/08/26 09:51:17;;;;;;;;;;;;;;;;;;6199530;28;20008;-75
2023/08/26 09:54:17;;;;;;;;;;;;;;;;;;6176565;28;20355;-75
2023/08/26 09:57:17;;;;;;;;;;;;;;;;;;6176635;28;19921;-75
2023/08/26 10:00:17;;;;;;;;;;;;;;;;;;6174718;28;19913;-75
2023/08/26 10:03:17;;;;;;;;;;;;;;;;;;6212573;28;19979;-75
2023/08/26 10:06:17;;;;;;;;;;;;;;;;;;6199048;28;19910;-76
2023/08/26 10:09:17;;;;;;;;;;;;;;;;;;6217361;28;20388;-74
2023/08/26 10:12:18;;;;;;;;;;;;;;;;;;6225243;28;19905;-76
2023/08/26 10:15:18;;;;;;;;;;;;;;;;;;6198460;28;19910;-75
2023/08/26 10:18:18;;;;;;;;;;;;;;;;;;6204857;28;19957;-75
2023/08/26 10:21:18;;;;;;;;;;;;;;;;;;6198183;28;19936;-74
2023/08/26 10:24:19;;;;;;;;;;;;;;;;;;6200320;28;19972;-75
2023/08/26 10:27:21;;;;;;;;;;;;;;;;;;6202577;28;19966;-75
2023/08/26 10:30:21;;;;;;;;;;;;;;;;;;6222826;28;20415;-76
2023/08/26 10:33:21;;;;;;;;;;;;;;;;;;6224165;28;19939;-75
2023/08/26 10:36:21;;;;;;;;;;;;;;;;;;6221386;28;19987;-77
2023/08/26 10:39:21;;;;;;;;;;;;;;;;;;6199371;28;20363;-75
2023/08/26 10:42:21;;;;;;;;;;;;;;;;;;6199792;28;20016;-74
2023/08/26 10:45:22;;;;;;;;;;;;;;;;;;6198200;28;19921;-76
2023/08/26 10:48:22;;;;;;;;;;;;;;;;;;6203371;28;20132;-76
2023/08/26 10:51:22;;;;;;;;;;;;;;;;;;6200030;28;19912;-76
2023/08/26 10:54:22;;;;;;;;;;;;;;;;;;6199776;28;19915;-76
2023/08/26 10:57:22;;;;;;;;;;;;;;;;;;6197996;28;19916;-77
2023/08/26 11:00:23;;;;;;;;;;;;;;;;;;6198217;28;19905;-76
2023/08/26 11:03:23;;;;;;;;;;;;;;;;;;6186623;28;19917;-76
2023/08/26 11:06:23;;;;;;;;;;;;;;;;;;6199241;28;19909;-75
2023/08/26 11:09:23;;;;;;;;;;;;;;;;;;6198289;28;20233;-76
2023/08/26 11:12:23;;;;;;;;;;;;;;;;;;6202094;28;20004;-75
2023/08/26 11:15:23;;;;;;;;;;;;;;;;;;6193076;28;20377;-77
2023/08/26 11:18:23;;;;;;;;;;;;;;;;;;6198799;28;19909;-74
2023/08/26 11:21:24;;;;;;;;;;;;;;;;;;6199398;28;19956;-77
2023/08/26 11:24:24;;;;;;;;;;;;;;;;;;6199107;28;19953;-77
2023/08/26 11:27:24;;;;;;;;;;;;;;;;;;6197615;28;19910;-74
2023/08/26 11:30:24;;;;;;;;;;;;;;;;;;6185074;28;19920;-75
2023/08/26 11:33:26;;;;;;;;;;;;;;;;;;6198524;28;19906;-77
2023/08/26 11:36:26;;;;;;;;;;;;;;;;;;6198822;28;19913;-76
2023/08/26 11:39:27;;;;;;;;;;;;;;;;;;6199081;28;20382;-77
2023/08/26 11:42:27;;;;;;;;;;;;;;;;;;6220065;28;20209;-77
2023/08/26 11:45:27;;;;;;;;;;;;;;;;;;6210161;28;19910;-77
2023/08/26 11:48:27;;;;;;;;;;;;;;;;;;6207878;28;19910;-77
2023/08/26 11:51:28;;;;;;;;;;;;;;;;;;6199010;28;19905;-78
2023/08/26 11:54:28;;;;;;;;;;;;;;;;;;6181065;28;19906;-76
2023/08/26 11:57:28;;;;;;;;;;;;;;;;;;6197943;28;19910;-76
2023/08/26 12:00:28;;;;;;;;;;;;;;;;;;6200261;28;20394;-76
2023/08/26 12:03:30;;;;;;;;;;;;;;;;;;6213009;28;19918;-77
2023/08/26 12:06:31;;;;;;;;;;;;;;;;;;6196432;28;20008;-78
2023/08/26 12:09:31;;;;;;;;;;;;;;;;;;6187946;28;19958;-82
2023/08/26 12:12:47;;;;;;;;;;;;;;;;;;6197809;28;20306;-78
2023/08/26 12:15:48;;;;;;;;;;;;;;;;;;6191240;28;20004;-77
2023/08/26 12:18:52;;;;;;;;;;;;;;;;;;6197529;28;20387;-77
2023/08/26 12:21:52;;;;;;;;;;;;;;;;;;6211769;28;19921;-78
2023/08/26 12:24:52;;;;;;;;;;;;;;;;;;6197582;28;19913;-76
2023/08/26 12:27:52;;;;;;;;;;;;;;;;;;6210441;28;19909;-77
2023/08/26 12:30:52;;;;;;;;;;;;;;;;;;6196136;28;19929;-78
2023/08/26 12:33:52;;;;;;;;;;;;;;;;;;6197306;28;19932;-78
2023/08/26 12:36:52;;;;;;;;;;;;;;;;;;6198708;28;19955;-78
2023/08/26 12:39:53;;;;;;;;;;;;;;;;;;6203994;28;19909;-78
2023/08/26 12:42:53;;;;;;;;;;;;;;;;;;6172214;28;19936;-78
2023/08/26 12:45:53;;;;;;;;;;;;;;;;;;6195560;28;19921;-78
2023/08/26 12:48:53;;;;;;;;;;;;;;;;;;6197471;28;19924;-78
2023/08/26 12:51:54;;;;;;;;;;;;;;;;;;6216618;28;19944;-79
2023/08/26 12:54:54;;;;;;;;;;;;;;;;;;6220915;28;19910;-78
2023/08/26 12:57:54;;;;;;;;;;;;;;;;;;6202908;28;20393;-78
2023/08/26 13:00:54;;;;;;;;;;;;;;;;;;6195526;28;20000;-77
2023/08/26 13:03:55;;;;;;;;;;;;;;;;;;6208184;28;20406;-78
2023/08/26 13:06:55;;;;;;;;;;;;;;;;;;6193926;28;20423;-78
2023/08/26 13:09:55;;;;;;;;;;;;;;;;;;6222153;28;19968;-79
2023/08/26 13:12:55;;;;;;;;;;;;;;;;;;6200210;28;19909;-79
2023/08/26 13:15:55;;;;;;;;;;;;;;;;;;6195738;28;19906;-79
2023/08/26 13:18:55;;;;;;;;;;;;;;;;;;6196939;28;19956;-79
2023/08/26 13:21:56;;;;;;;;;;;;;;;;;;6209135;28;19933;-79
2023/08/26 13:24:59;;;;;;;;;;;;;;;;;;6196665;28;20333;-84
2023/08/26 13:27:59;;;;;;;;;;;;;;;;;;6197732;28;20358;-80
2023/08/26 13:31:02;;;;;;;;;;;;;;;;;;6194023;28;19910;-80
2023/08/26 13:34:03;;;;;;;;;;;;;;;;;;6195065;28;20291;-79
2023/08/26 13:37:03;;;;;;;;;;;;;;;;;;6197618;28;19905;-80
2023/08/26 13:40:03;;;;;;;;;;;;;;;;;;6222001;28;19921;-79
2023/08/26 13:43:03;;;;;;;;;;;;;;;;;;6220573;28;19913;-79
2023/08/26 13:46:03;;;;;;;;;;;;;;;;;;6189697;28;19920;-81
2023/08/26 13:49:03;;;;;;;;;;;;;;;;;;6197281;28;19910;-80
2023/08/26 13:52:04;;;;;;;;;;;;;;;;;;6191459;28;20329;-79
2023/08/26 13:55:05;;;;;;;;;;;;;;;;;;6195541;28;19914;-79
2023/08/26 13:58:06;;;;;;;;;;;;;;;;;;6209974;28;19909;-80
2023/08/26 14:01:06;;;;;;;;;;;;;;;;;;6204388;28;19952;-79
2023/08/26 14:04:06;;;;;;;;;;;;;;;;;;6184277;28;19918;-78
2023/08/26 14:07:06;;;;;;;;;;;;;;;;;;6196770;28;19952;-84
2023/08/26 14:10:06;;;;;;;;;;;;;;;;;;6204932;28;19949;-80
2023/08/26 14:13:06;;;;;;;;;;;;;;;;;;6224042;28;20003;-79
2023/08/26 14:16:07;;;;;;;;;;;;;;;;;;6173612;28;19936;-78
2023/08/26 14:19:07;;;;;;;;;;;;;;;;;;6196230;28;19914;-78
2023/08/26 14:22:07;;;;;;;;;;;;;;;;;;6200777;28;19945;-78
2023/08/26 14:25:07;;;;;;;;;;;;;;;;;;6211311;28;19909;-78
2023/08/26 14:28:07;;;;;;;;;;;;;;;;;;6213214;28;19910;-78
2023/08/26 14:31:07;;;;;;;;;;;;;;;;;;6218234;28;19909;-78
2023/08/26 14:34:09;;;;;;;;;;;;;;;;;;6210951;28;19905;-78
2023/08/26 14:37:10;;;;;;;;;;;;;;;;;;6212632;28;19918;-78
2023/08/26 14:40:10;;;;;;;;;;;;;;;;;;6201284;28;19943;-77
2023/08/26 14:43:10;;;;;;;;;;;;;;;;;;6198989;28;20333;-77
2023/08/26 14:46:10;;;;;;;;;;;;;;;;;;6197639;28;19932;-77
2023/08/26 14:49:15;;;;;;;;;;;;;;;;;;6200689;28;20083;-80
2023/08/26 14:52:15;;;;;;;;;;;;;;;;;;6211661;28;19925;-78
2023/08/26 14:55:15;;;;;;;;;;;;;;;;;;6200657;28;19913;-79
2023/08/26 14:58:16;;;;;;;;;;;;;;;;;;6201725;28;19909;-78
2023/08/26 15:01:16;;;;;;;;;;;;;;;;;;6199012;28;19914;-79
2023/08/26 15:04:16;;;;;;;;;;;;;;;;;;6200436;28;19910;-78
2023/08/26 15:07:16;;;;;;;;;;;;;;;;;;6180393;28;19909;-77
2023/08/26 15:10:16;;;;;;;;;;;;;;;;;;6210291;28;19978;-77
2023/08/26 15:13:18;;;;;;;;;;;;;;;;;;6225519;28;19932;-77
2023/08/26 15:16:18;;;;;;;;;;;;;;;;;;6200927;28;19909;-77
2023/08/26 15:19:18;;;;;;;;;;;;;;;;;;6201271;28;19952;-78
2023/08/26 15:22:18;;;;;;;;;;;;;;;;;;6205421;28;19995;-76
2023/08/26 15:25:18;;;;;;;;;;;;;;;;;;6207462;28;19924;-77
2023/08/26 15:28:18;;;;;;;;;;;;;;;;;;6207283;28;19910;-77
2023/08/26 15:31:18;;;;;;;;;;;;;;;;;;6210848;28;20415;-78
2023/08/26 15:34:19;;;;;;;;;;;;;;;;;;6223288;28;19905;-76
2023/08/26 15:37:19;;;;;;;;;;;;;;;;;;6213196;28;20352;-76
2023/08/26 15:40:19;;;;;;;;;;;;;;;;;;6199754;28;20004;-75
2023/08/26 15:43:20;;;;;;;;;;;;;;;;;;6203231;28;19987;-76
2023/08/26 15:46:20;;;;;;;;;;;;;;;;;;6197168;28;20324;-76
2023/08/26 15:49:20;;;;;;;;;;;;;;;;;;6180754;28;20344;-75
2023/08/26 15:52:20;;;;;;;;;;;;;;;;;;6198624;28;19906;-75
2023/08/26 15:55:20;;;;;;;;;;;;;;;;;;6198375;28;19922;-76
2023/08/26 15:58:21;;;;;;;;;;;;;;;;;;6198646;28;19916;-75
2023/08/26 16:01:27;;;;;;;;;;;;;;;;;;6205767;28;20336;-75
2023/08/26 16:04:28;;;;;;;;;;;;;;;;;;6219647;28;19914;-81
2023/08/26 16:07:29;;;;;;;;;;;;;;;;;;6180801;28;19916;-76
2023/08/26 16:10:29;;;;;;;;;;;;;;;;;;6199002;28;20305;-75
2023/08/26 16:13:29;;;;;;;;;;;;;;;;;;6198717;28;19912;-74
2023/08/26 16:16:29;;;;;;;;;;;;;;;;;;6196647;28;19906;-75
2023/08/26 16:19:29;;;;;;;;;;;;;;;;;;6188765;28;19909;-75
2023/08/26 16:22:30;;;;;;;;;;;;;;;;;;6204255;28;19941;-75
2023/08/26 16:25:30;;;;;;;;;;;;;;;;;;6216646;28;19945;-76
2023/08/26 16:28:32;;;;;;;;;;;;;;;;;;6200520;28;20408;-76
2023/08/26 16:31:32;;;;;;;;;;;;;;;;;;6198318;28;19906;-75
2023/08/26 16:34:37;;;;;;;;;;;;;;;;;;6182957;28;19905;-75
2023/08/26 16:37:37;;;;;;;;;;;;;;;;;;6211392;28;19909;-75
2023/08/26 16:40:37;;;;;;;;;;;;;;;;;;6198434;28;19910;-76
2023/08/26 16:43:37;;;;;;;;;;;;;;;;;;6221145;28;19917;-76
2023/08/26 16:46:37;;;;;;;;;;;;;;;;;;6204263;28;19992;-74
2023/08/26 16:49:37;;;;;;;;;;;;;;;;;;6197610;28;19909;-75
2023/08/26 16:52:38;;;;;;;;;;;;;;;;;;6211241;28;19910;-75
2023/08/26 16:55:38;;;;;;;;;;;;;;;;;;6223737;28;19905;-74
2023/08/26 16:58:38;;;;;;;;;;;;;;;;;;6208616;28;20051;-74
2023/08/26 17:01:38;;;;;;;;;;;;;;;;;;6181291;28;19921;-76
2023/08/26 17:04:38;;;;;;;;;;;;;;;;;;6198635;28;19937;-75
2023/08/26 17:07:38;;;;;;;;;;;;;;;;;;6201349;28;19980;-75
2023/08/26 17:10:38;;;;;;;;;;;;;;;;;;6215128;28;20367;-75
2023/08/26 17:13:39;;;;;;;;;;;;;;;;;;6215458;28;19989;-75
2023/08/26 17:16:39;;;;;;;;;;;;;;;;;;6194459;28;19909;-75
2023/08/26 17:19:39;;;;;;;;;;;;;;;;;;6203029;28;19964;-74
2023/08/26 17:22:39;;;;;;;;;;;;;;;;;;6197199;28;20387;-75
2023/08/26 17:25:39;;;;;;;;;;;;;;;;;;6209181;28;19914;-74
2023/08/26 17:28:39;;;;;;;;;;;;;;;;;;6208935;28;19932;-74
2023/08/26 17:31:41;;;;;;;;;;;;;;;;;;6199728;28;20340;-75
2023/08/26 17:34:41;;;;;;;;;;;;;;;;;;6201895;28;19917;-76
2023/08/26 17:37:41;;;;;;;;;;;;;;;;;;6183858;28;19914;-75
2023/08/26 17:40:42;;;;;;;;;;;;;;;;;;6202009;28;19920;-74
2023/08/26 17:43:42;;;;;;;;;;;;;;;;;;6203668;28;19922;-74
2023/08/26 17:46:42;;;;;;;;;;;;;;;;;;6199262;28;19914;-75
2023/08/26 17:49:42;;;;;;;;;;;;;;;;;;6199566;28;19913;-75
2023/08/26 17:52:42;;;;;;;;;;;;;;;;;;6201427;28;20440;-74
2023/08/26 17:55:43;;;;;;;;;;;;;;;;;;6200902;28;19906;-74
2023/08/26 17:58:43;;;;;;;;;;;;;;;;;;6200253;28;20337;-75
2023/08/26 18:01:43;;;;;;;;;;;;;;;;;;6199182;28;19922;-78
2023/08/26 18:04:44;;;;;;;;;;;;;;;;;;6201187;28;20248;-75
2023/08/26 18:07:44;;;;;;;;;;;;;;;;;;6200973;28;19909;-74
2023/08/26 18:10:44;;;;;;;;;;;;;;;;;;6200865;28;19952;-73
2023/08/26 18:13:48;;;;;;;;;;;;;;;;;;6200204;28;20019;-74
2023/08/26 18:16:48;;;;;;;;;;;;;;;;;;6214674;28;19910;-74
2023/08/26 18:19:48;;;;;;;;;;;;;;;;;;6180944;28;19956;-74
2023/08/26 18:22:48;;;;;;;;;;;;;;;;;;6176574;28;19989;-75
2023/08/26 18:25:49;;;;;;;;;;;;;;;;;;6185299;28;19910;-74
2023/08/26 18:28:49;;;;;;;;;;;;;;;;;;6200261;28;19976;-75
2023/08/26 18:31:49;;;;;;;;;;;;;;;;;;6202941;28;20368;-75
2023/08/26 18:34:51;;;;;;;;;;;;;;;;;;6211735;28;19971;-75
2023/08/26 18:37:51;;;;;;;;;;;;;;;;;;6182471;28;19948;-76
2023/08/26 18:40:51;;;;;;;;;;;;;;;;;;6199163;28;20384;-75
2023/08/26 18:43:51;;;;;;;;;;;;;;;;;;6200030;28;19918;-81
2023/08/26 18:46:51;;;;;;;;;;;;;;;;;;6196584;28;19953;-75
2023/08/26 18:49:51;;;;;;;;;;;;;;;;;;6199012;28;19913;-75
2023/08/26 18:52:51;;;;;;;;;;;;;;;;;;6204608;28;19952;-74
2023/08/26 18:55:51;;;;;;;;;;;;;;;;;;6200417;28;19910;-74
2023/08/26 18:58:52;;;;;;;;;;;;;;;;;;6200239;28;19929;-74
2023/08/26 19:01:52;;;;;;;;;;;;;;;;;;6189871;28;19918;-74
2023/08/26 19:04:52;;;;;;;;;;;;;;;;;;6187853;28;19981;-74
2023/08/26 19:07:53;;;;;;;;;;;;;;;;;;6176617;28;20315;-74
2023/08/26 19:10:53;;;;;;;;;;;;;;;;;;6182466;28;19917;-75
2023/08/26 19:13:53;;;;;;;;;;;;;;;;;;6189791;28;20404;-75
2023/08/26 19:16:53;;;;;;;;;;;;;;;;;;6167308;28;19976;-74
2023/08/26 19:19:53;;;;;;;;;;;;;;;;;;6174264;28;19949;-74
2023/08/26 19:22:53;;;;;;;;;;;;;;;;;;6175234;28;19914;-74
2023/08/26 19:25:53;;;;;;;;;;;;;;;;;;6186619;28;19920;-74
2023/08/26 19:28:53;;;;;;;;;;;;;;;;;;6183586;28;19937;-74
2023/08/26 19:31:54;;;;;;;;;;;;;;;;;;6172797;28;20216;-76
2023/08/26 19:34:54;;;;;;;;;;;;;;;;;;6174757;28;19929;-74
2023/08/26 19:37:55;;;;;;;;;;;;;;;;;;6173196;28;20309;-73
2023/08/26 19:40:55;;;;;;;;;;;;;;;;;;6182803;28;19949;-74
2023/08/26 19:43:55;;;;;;;;;;;;;;;;;;6176449;28;20000;-73
2023/08/26 19:46:55;;;;;;;;;;;;;;;;;;6173197;28;19914;-74
2023/08/26 19:49:55;;;;;;;;;;;;;;;;;;6173800;28;20329;-73
2023/08/26 19:52:55;;;;;;;;;;;;;;;;;;6174976;28;19910;-75
2023/08/26 19:55:57;;;;;;;;;;;;;;;;;;6190802;28;19956;-75
2023/08/26 19:58:57;;;;;;;;;;;;;;;;;;6166687;28;19936;-74
2023/08/26 20:01:57;;;;;;;;;;;;;;;;;;6172103;28;19918;-72
2023/08/26 20:04:57;;;;;;;;;;;;;;;;;;6156196;28;19914;-73
2023/08/26 20:07:57;;;;;;;;;;;;;;;;;;6182375;28;19910;-73
2023/08/26 20:10:58;;;;;;;;;;;;;;;;;;6174499;28;20376;-73
2023/08/26 20:13:58;;;;;;;;;;;;;;;;;;6167388;28;19911;-74
2023/08/26 20:16:58;;;;;;;;;;;;;;;;;;6166761;28;19957;-73
2023/08/26 20:19:58;;;;;;;;;;;;;;;;;;6173435;28;19910;-73
2023/08/26 20:22:58;;;;;;;;;;;;;;;;;;6173788;28;20372;-72
2023/08/26 20:25:59;;;;;;;;;;;;;;;;;;6171726;28;20001;-74
2023/08/26 20:28:59;;;;;;;;;;;;;;;;;;6181201;28;19968;-74
2023/08/26 20:31:59;;;;;;;;;;;;;;;;;;6171666;28;19910;-74